createdAt,value
2019-02-27T00:02:04.853Z,2.70
2019-02-27T00:04:34.874Z,2.60
2019-02-27T00:06:59.403Z,2.60
2019-02-27T00:09:25.622Z,2.60
2019-02-27T00:11:51.950Z,2.70
2019-02-27T00:14:18.205Z,2.60
2019-02-27T00:16:45.273Z,2.60
2019-02-27T00:19:11.833Z,2.60
2019-02-27T00:21:38.205Z,2.70
2019-02-27T00:24:04.522Z,2.70
2019-02-27T00:26:30.845Z,2.60
2019-02-27T00:28:57.201Z,2.60
2019-02-27T00:31:23.518Z,2.60
2019-02-27T00:33:49.729Z,2.60
2019-02-27T00:36:15.985Z,2.50
2019-02-27T00:38:42.327Z,2.50
2019-02-27T00:41:12.017Z,2.50
2019-02-27T00:43:36.791Z,2.60
2019-02-27T00:46:03.095Z,2.60
2019-02-27T00:48:29.336Z,2.60
2019-02-27T00:50:55.660Z,2.70
2019-02-27T00:53:22.001Z,2.70
2019-02-27T00:55:50.023Z,2.80
2019-02-27T00:58:16.263Z,2.80
2019-02-27T01:00:42.573Z,2.80
2019-02-27T01:03:08.801Z,2.80
2019-02-27T01:05:35.125Z,2.70
2019-02-27T01:08:01.449Z,2.60
2019-02-27T01:10:27.682Z,2.50
2019-02-27T01:12:57.944Z,2.60
2019-02-27T01:15:22.754Z,2.50
2019-02-27T01:17:48.964Z,2.50
2019-02-27T01:20:15.197Z,2.50
2019-02-27T01:22:42.608Z,2.50
2019-02-27T01:25:08.968Z,2.40
2019-02-27T01:27:37.860Z,2.40
2019-02-27T01:30:07.155Z,2.30
2019-02-27T01:32:33.388Z,2.30
2019-02-27T01:34:59.623Z,2.30
2019-02-27T01:37:25.941Z,2.30
2019-02-27T01:39:52.154Z,2.20
2019-02-27T01:42:18.382Z,2.10
2019-02-27T01:44:46.538Z,2.00
2019-02-27T01:47:12.722Z,1.90
2019-02-27T01:49:39.963Z,1.90
2019-02-27T01:52:06.273Z,1.80
2019-02-27T01:54:32.594Z,1.70
2019-02-27T01:57:02.498Z,1.70
2019-02-27T01:59:27.103Z,1.70
2019-02-27T02:01:53.320Z,1.70
2019-02-27T02:04:20.295Z,1.70
2019-02-27T02:06:48.381Z,1.70
2019-02-27T02:09:34.380Z,1.60
2019-02-27T02:12:08.638Z,1.50
2019-02-27T02:14:57.557Z,1.50
2019-02-27T02:17:41.055Z,1.40
2019-02-27T02:20:27.007Z,1.40
2019-02-27T02:22:58.357Z,1.40
2019-02-27T02:25:49.732Z,1.30
2019-02-27T02:28:34.335Z,1.30
2019-02-27T02:31:07.400Z,1.30
2019-02-27T02:33:37.421Z,1.30
2019-02-27T02:36:13.368Z,1.30
2019-02-27T02:39:10.811Z,1.40
2019-02-27T02:41:55.477Z,1.40
2019-02-27T02:44:44.026Z,1.40
2019-02-27T02:47:29.555Z,1.40
2019-02-27T02:49:59.682Z,1.40
2019-02-27T02:52:53.493Z,1.40
2019-02-27T02:55:32.209Z,1.30
2019-02-27T02:58:07.785Z,1.30
2019-02-27T03:01:05.779Z,1.40
2019-02-27T03:03:42.186Z,1.40
2019-02-27T03:06:21.394Z,1.50
2019-02-27T03:09:18.975Z,1.50
2019-02-27T03:12:09.573Z,1.40
2019-02-27T03:14:59.449Z,1.40
2019-02-27T03:17:53.759Z,1.30
2019-02-27T03:20:34.986Z,1.20
2019-02-27T03:23:15.768Z,1.20
2019-02-27T03:25:49.215Z,1.10
2019-02-27T03:28:41.847Z,1.10
2019-02-27T03:31:33.622Z,1.10
2019-02-27T03:34:08.091Z,1.10
2019-02-27T03:37:04.725Z,1.10
2019-02-27T03:39:40.775Z,1.00
2019-02-27T03:42:13.503Z,1.00
2019-02-27T03:44:46.487Z,1.00
2019-02-27T03:47:22.547Z,1.00
2019-02-27T03:49:55.410Z,1.00
2019-02-27T03:52:25.465Z,0.90
2019-02-27T03:55:22.869Z,0.90
2019-02-27T03:58:07.986Z,0.90
2019-02-27T04:00:53.781Z,0.80
2019-02-27T04:03:42.170Z,0.80
2019-02-27T04:06:12.199Z,0.80
2019-02-27T04:08:52.194Z,0.80
2019-02-27T04:11:18.414Z,0.90
2019-02-27T04:13:44.736Z,0.80
2019-02-27T04:16:11.148Z,0.80
2019-02-27T04:18:37.153Z,0.80
2019-02-27T04:21:03.398Z,0.90
2019-02-27T04:23:29.709Z,0.90
2019-02-27T04:25:55.926Z,0.80
2019-02-27T04:28:22.156Z,0.80
2019-02-27T04:30:51.127Z,0.80
2019-02-27T04:33:22.928Z,0.80
2019-02-27T04:35:44.636Z,0.70
2019-02-27T04:38:10.967Z,0.70
2019-02-27T04:40:37.213Z,0.70
2019-02-27T04:43:03.535Z,0.70
2019-02-27T04:45:29.865Z,0.70
2019-02-27T04:47:56.149Z,0.80
2019-02-27T04:50:22.393Z,0.80
2019-02-27T04:52:48.621Z,0.80
2019-02-27T04:55:15.749Z,0.90
2019-02-27T04:57:42.593Z,0.80
2019-02-27T05:00:09.759Z,0.80
2019-02-27T05:02:36.081Z,0.80
2019-02-27T05:05:06.250Z,0.70
2019-02-27T05:07:32.270Z,0.70
2019-02-27T05:09:58.587Z,0.70
2019-02-27T05:12:24.909Z,0.60
2019-02-27T05:14:51.153Z,0.60
2019-02-27T05:17:21.195Z,0.60
2019-02-27T05:19:45.567Z,0.60
2019-02-27T05:22:11.813Z,0.60
2019-02-27T05:24:40.633Z,0.50
2019-02-27T05:27:06.266Z,0.50
2019-02-27T05:29:32.509Z,0.60
2019-02-27T05:31:58.727Z,0.60
2019-02-27T05:34:25.052Z,0.70
2019-02-27T05:36:51.378Z,0.70
2019-02-27T05:39:18.015Z,0.70
2019-02-27T05:41:44.447Z,0.70
2019-02-27T05:44:10.693Z,0.60
2019-02-27T05:46:38.319Z,0.50
2019-02-27T05:49:05.026Z,0.60
2019-02-27T05:51:31.439Z,0.50
2019-02-27T05:53:58.460Z,0.40
2019-02-27T05:56:28.783Z,0.40
2019-02-27T05:58:56.262Z,0.40
2019-02-27T06:01:23.136Z,0.30
2019-02-27T06:03:49.420Z,0.40
2019-02-27T06:06:17.495Z,0.30
2019-02-27T06:08:43.925Z,0.30
2019-02-27T06:11:10.145Z,0.30
2019-02-27T06:13:36.481Z,0.40
2019-02-27T06:16:03.837Z,0.30
2019-02-27T06:18:30.813Z,0.30
2019-02-27T06:20:57.053Z,0.30
2019-02-27T06:23:23.277Z,0.30
2019-02-27T06:25:49.512Z,0.20
2019-02-27T06:28:18.509Z,0.10
2019-02-27T06:30:43.969Z,0.10
2019-02-27T06:33:11.787Z,0.10
2019-02-27T06:35:38.442Z,0.00
2019-02-27T06:38:04.661Z,0.00
2019-02-27T06:40:31.011Z,0.10
2019-02-27T06:42:57.262Z,0.10
2019-02-27T06:45:23.471Z,0.10
2019-02-27T06:47:49.736Z,0.20
2019-02-27T06:50:16.208Z,0.20
2019-02-27T06:52:43.096Z,0.30
2019-02-27T06:55:13.125Z,0.30
2019-02-27T06:57:41.264Z,0.30
2019-02-27T07:00:14.957Z,0.30
2019-02-27T07:02:41.304Z,0.40
2019-02-27T07:05:13.269Z,0.40
2019-02-27T07:07:37.133Z,0.40
2019-02-27T07:10:06.698Z,0.50
2019-02-27T07:12:33.029Z,0.50
2019-02-27T07:15:00.334Z,0.60
2019-02-27T07:17:29.107Z,0.60
2019-02-27T07:19:54.705Z,0.60
2019-02-27T07:22:20.930Z,0.60
2019-02-27T07:24:47.286Z,0.60
2019-02-27T07:27:13.521Z,0.70
2019-02-27T07:29:39.758Z,0.80
2019-02-27T07:32:06.018Z,0.80
2019-02-27T07:34:32.237Z,0.90
2019-02-27T07:36:58.467Z,0.90
2019-02-27T07:39:24.814Z,1.00
2019-02-27T07:41:51.142Z,1.00
2019-02-27T07:44:17.457Z,1.10
2019-02-27T07:46:43.695Z,1.10
2019-02-27T07:49:09.933Z,1.20
2019-02-27T07:51:36.260Z,1.20
2019-02-27T07:54:03.940Z,1.40
2019-02-27T07:56:30.320Z,1.40
2019-02-27T07:58:56.646Z,1.40
2019-02-27T08:01:23.526Z,1.40
2019-02-27T08:03:50.518Z,1.50
2019-02-27T08:06:18.132Z,1.60
2019-02-27T08:08:44.537Z,1.60
2019-02-27T08:11:13.181Z,1.70
2019-02-27T08:13:38.913Z,1.80
2019-02-27T08:16:05.158Z,2.00
2019-02-27T08:18:36.559Z,2.10
2019-02-27T08:20:59.529Z,2.30
2019-02-27T08:23:25.983Z,2.40
2019-02-27T08:25:52.332Z,2.50
2019-02-27T08:28:19.723Z,2.60
2019-02-27T08:30:46.078Z,2.60
2019-02-27T08:33:12.421Z,2.70
2019-02-27T08:35:38.757Z,2.80
2019-02-27T08:38:05.005Z,2.90
2019-02-27T08:40:31.228Z,3.10
2019-02-27T08:42:58.021Z,3.10
2019-02-27T08:45:26.870Z,3.20
2019-02-27T08:47:55.582Z,3.30
2019-02-27T08:50:22.853Z,3.30
2019-02-27T08:52:51.511Z,3.30
2019-02-27T08:55:21.107Z,3.60
2019-02-27T08:57:45.396Z,3.80
2019-02-27T09:00:15.117Z,4.10
2019-02-27T09:02:41.346Z,4.20
2019-02-27T09:05:08.377Z,4.30
2019-02-27T09:07:36.469Z,4.40
2019-02-27T09:10:08.169Z,4.40
2019-02-27T09:12:34.392Z,4.50
2019-02-27T09:15:00.828Z,4.60
2019-02-27T09:17:28.464Z,4.70
2019-02-27T09:19:54.702Z,4.90
2019-02-27T09:22:21.079Z,5.00
2019-02-27T09:24:47.409Z,5.10
2019-02-27T09:27:13.729Z,5.20
2019-02-27T09:29:40.082Z,5.40
2019-02-27T09:32:06.305Z,5.40
2019-02-27T09:34:32.574Z,5.50
2019-02-27T09:36:59.007Z,5.50
2019-02-27T09:39:25.224Z,5.60
2019-02-27T09:41:51.547Z,5.80
2019-02-27T09:44:17.927Z,5.80
2019-02-27T09:46:44.149Z,5.90
2019-02-27T09:49:10.386Z,5.90
2019-02-27T09:51:36.642Z,6.10
2019-02-27T09:54:02.864Z,6.30
2019-02-27T09:56:29.791Z,6.50
2019-02-27T09:58:56.243Z,6.80
2019-02-27T10:01:22.954Z,7.10
2019-02-27T10:03:51.941Z,7.30
2019-02-27T10:06:17.345Z,7.50
2019-02-27T10:08:43.682Z,7.70
2019-02-27T10:11:10.024Z,8.00
2019-02-27T10:13:37.926Z,8.20
2019-02-27T10:16:04.706Z,8.20
2019-02-27T10:18:31.134Z,8.20
2019-02-27T10:20:57.381Z,8.20
2019-02-27T10:23:23.611Z,8.10
2019-02-27T10:25:50.057Z,8.10
2019-02-27T10:28:16.512Z,8.10
2019-02-27T10:30:42.833Z,8.20
2019-02-27T10:33:11.107Z,8.20
2019-02-27T10:35:37.341Z,8.40
2019-02-27T10:38:03.566Z,8.40
2019-02-27T10:40:30.078Z,8.30
2019-02-27T10:42:56.341Z,8.30
2019-02-27T10:45:22.697Z,8.40
2019-02-27T10:47:48.917Z,8.50
2019-02-27T10:50:15.241Z,8.70
2019-02-27T10:52:41.474Z,8.70
2019-02-27T10:55:14.228Z,8.70
2019-02-27T10:57:41.228Z,8.70
2019-02-27T11:00:19.277Z,8.80
2019-02-27T11:02:47.948Z,9.00
2019-02-27T11:05:15.069Z,9.20
2019-02-27T11:07:41.934Z,9.50
2019-02-27T11:10:08.393Z,9.70
2019-02-27T11:12:34.709Z,9.90
2019-02-27T11:15:00.941Z,10.10
2019-02-27T11:17:27.179Z,10.10
2019-02-27T11:19:53.399Z,10.00
2019-02-27T11:22:19.734Z,10.10
2019-02-27T11:24:49.088Z,10.00
2019-02-27T11:27:14.130Z,10.00
2019-02-27T11:29:40.365Z,9.90
2019-02-27T11:32:06.701Z,9.80
2019-02-27T11:34:33.125Z,9.70
2019-02-27T11:36:59.441Z,9.70
2019-02-27T11:39:25.685Z,9.70
2019-02-27T11:41:51.897Z,9.80
2019-02-27T11:44:18.225Z,9.80
2019-02-27T11:46:44.482Z,9.80
2019-02-27T11:49:10.702Z,9.70
2019-02-27T11:51:36.929Z,9.70
2019-02-27T11:54:04.293Z,9.60
2019-02-27T11:56:30.909Z,9.40
2019-02-27T11:58:57.127Z,9.30
2019-02-27T12:01:23.477Z,9.20
2019-02-27T12:03:49.774Z,9.00
2019-02-27T12:06:15.984Z,9.00
2019-02-27T12:08:42.260Z,9.00
2019-02-27T12:11:09.784Z,8.90
2019-02-27T12:13:36.798Z,8.70
2019-02-27T12:16:04.846Z,8.60
2019-02-27T12:18:32.191Z,8.50
2019-02-27T12:20:59.182Z,8.40
2019-02-27T12:23:25.434Z,8.30
2019-02-27T12:25:51.655Z,8.30
2019-02-27T12:28:18.383Z,8.20
2019-02-27T12:30:44.733Z,8.20
2019-02-27T12:33:10.953Z,8.20
2019-02-27T12:35:37.257Z,8.20
2019-02-27T12:38:08.081Z,8.10
2019-02-27T12:40:32.996Z,8.00
2019-02-27T12:42:59.325Z,8.00
2019-02-27T12:45:29.435Z,8.00
2019-02-27T12:47:55.125Z,7.90
2019-02-27T12:50:22.664Z,7.90
2019-02-27T12:52:49.029Z,8.00
2019-02-27T12:55:16.545Z,7.90
2019-02-27T12:57:42.869Z,7.90
2019-02-27T13:00:15.745Z,7.80
2019-02-27T13:02:41.999Z,7.90
2019-02-27T13:05:11.354Z,7.80
2019-02-27T13:07:37.781Z,7.80
2019-02-27T13:10:07.806Z,7.80
2019-02-27T13:12:34.026Z,7.80
2019-02-27T13:15:00.355Z,7.80
2019-02-27T13:17:26.715Z,7.80
2019-02-27T13:19:52.925Z,7.80
2019-02-27T13:22:19.198Z,7.90
2019-02-27T13:24:47.031Z,7.90
2019-02-27T13:27:13.638Z,7.90
2019-02-27T13:29:39.963Z,7.90
2019-02-27T13:32:06.177Z,7.90
2019-02-27T13:34:32.425Z,7.80
2019-02-27T13:36:58.681Z,7.80
2019-02-27T13:39:25.594Z,7.80
2019-02-27T13:41:52.581Z,7.80
2019-02-27T13:44:18.825Z,7.90
2019-02-27T13:46:45.041Z,7.80
2019-02-27T13:49:13.790Z,7.80
2019-02-27T13:51:40.302Z,7.70
2019-02-27T13:54:06.654Z,7.60
2019-02-27T13:56:32.970Z,7.60
2019-02-27T13:59:00.245Z,7.60
2019-02-27T14:01:28.556Z,7.50
2019-02-27T14:03:54.606Z,7.50
2019-02-27T14:06:20.845Z,7.40
2019-02-27T14:08:47.061Z,7.50
2019-02-27T14:11:13.448Z,7.50
2019-02-27T14:13:43.797Z,7.50
2019-02-27T14:16:07.828Z,7.60
2019-02-27T14:18:34.141Z,7.70
2019-02-27T14:21:01.755Z,7.70
2019-02-27T14:23:28.597Z,7.70
2019-02-27T14:25:54.926Z,7.80
2019-02-27T14:28:21.661Z,7.80
2019-02-27T14:30:51.709Z,7.80
2019-02-27T14:33:19.450Z,7.90
2019-02-27T14:35:46.109Z,8.00
2019-02-27T14:38:12.337Z,8.10
2019-02-27T14:40:41.277Z,8.10
2019-02-27T14:43:07.191Z,8.20
2019-02-27T14:45:33.501Z,8.20
2019-02-27T14:47:59.862Z,8.30
2019-02-27T14:50:26.568Z,8.20
2019-02-27T14:52:52.890Z,8.20
2019-02-27T14:55:20.217Z,8.20
2019-02-27T14:57:49.951Z,8.10
2019-02-27T15:00:18.793Z,8.00
2019-02-27T15:02:45.137Z,8.10
2019-02-27T15:05:11.772Z,8.10
2019-02-27T15:07:40.409Z,8.10
2019-02-27T15:10:10.362Z,8.10
2019-02-27T15:12:36.693Z,8.20
2019-02-27T15:15:06.779Z,8.30
2019-02-27T15:17:34.469Z,8.50
2019-02-27T15:20:04.534Z,8.80
2019-02-27T15:22:30.046Z,9.00
2019-02-27T15:24:56.373Z,9.00
2019-02-27T15:27:24.983Z,8.90
2019-02-27T15:29:50.749Z,8.90
2019-02-27T15:32:16.985Z,8.80
2019-02-27T15:34:45.948Z,8.70
2019-02-27T15:37:11.482Z,8.60
2019-02-27T15:39:37.818Z,8.50
2019-02-27T15:42:08.506Z,8.40
2019-02-27T15:44:34.599Z,8.30
2019-02-27T15:47:00.818Z,8.20
2019-02-27T15:49:27.069Z,8.10
2019-02-27T15:51:53.309Z,8.10
2019-02-27T15:54:23.650Z,8.00
2019-02-27T15:56:47.677Z,7.80
2019-02-27T15:59:13.993Z,7.80
2019-02-27T16:01:40.214Z,7.80
2019-02-27T16:04:06.457Z,7.70
2019-02-27T16:06:32.709Z,7.70
2019-02-27T16:08:59.050Z,7.70
2019-02-27T16:11:26.302Z,7.70
2019-02-27T16:13:52.538Z,7.70
2019-02-27T16:16:22.409Z,7.70
2019-02-27T16:18:47.033Z,7.60
2019-02-27T16:21:13.269Z,7.60
2019-02-27T16:23:39.490Z,7.50
2019-02-27T16:26:05.852Z,7.50
2019-02-27T16:28:32.175Z,7.40
2019-02-27T16:30:58.482Z,7.30
2019-02-27T16:33:24.761Z,7.20
2019-02-27T16:35:51.065Z,7.20
2019-02-27T16:38:17.293Z,7.10
2019-02-27T16:40:43.651Z,7.10
2019-02-27T16:43:10.302Z,7.00
2019-02-27T16:45:38.445Z,6.90
2019-02-27T16:48:05.641Z,6.80
2019-02-27T16:50:32.017Z,6.50
2019-02-27T16:52:58.330Z,6.50
2019-02-27T16:55:25.589Z,6.60
2019-02-27T16:57:56.504Z,6.60
2019-02-27T17:00:21.731Z,6.70
2019-02-27T17:02:48.177Z,6.80
2019-02-27T17:05:14.500Z,7.10
2019-02-27T17:07:40.833Z,7.10
2019-02-27T17:10:10.388Z,7.00
2019-02-27T17:12:38.276Z,6.90
2019-02-27T17:15:04.953Z,6.80
2019-02-27T17:17:31.330Z,6.70
2019-02-27T17:19:57.582Z,6.70
2019-02-27T17:22:23.899Z,6.60
2019-02-27T17:24:52.178Z,6.70
2019-02-27T17:27:19.297Z,6.60
2019-02-27T17:29:45.508Z,6.50
2019-02-27T17:32:11.771Z,6.50
2019-02-27T17:34:38.078Z,6.50
2019-02-27T17:37:06.364Z,6.40
2019-02-27T17:39:32.485Z,6.40
2019-02-27T17:41:58.871Z,6.40
2019-02-27T17:44:26.204Z,6.50
2019-02-27T17:46:54.767Z,6.60
2019-02-27T17:49:22.168Z,6.60
2019-02-27T17:51:49.582Z,6.50
2019-02-27T17:54:16.005Z,6.40
2019-02-27T17:56:42.313Z,6.20
2019-02-27T17:59:09.387Z,6.10
2019-02-27T18:01:35.894Z,5.90
2019-02-27T18:04:02.240Z,5.70
2019-02-27T18:06:31.137Z,5.60
2019-02-27T18:08:58.974Z,5.50
2019-02-27T18:11:25.289Z,5.50
2019-02-27T18:13:51.631Z,5.40
2019-02-27T18:16:18.645Z,5.30
2019-02-27T18:18:44.964Z,5.10
2019-02-27T18:21:11.207Z,5.10
2019-02-27T18:23:37.437Z,5.00
2019-02-27T18:26:03.774Z,4.90
2019-02-27T18:28:32.937Z,4.80
2019-02-27T18:30:59.280Z,5.00
2019-02-27T18:33:25.581Z,5.40
2019-02-27T18:35:51.889Z,5.40
2019-02-27T18:38:18.165Z,5.40
2019-02-27T18:40:44.429Z,5.30
2019-02-27T18:43:10.737Z,5.20
2019-02-27T18:45:37.453Z,5.20
2019-02-27T18:48:03.761Z,5.10
2019-02-27T18:50:30.074Z,5.10
2019-02-27T18:52:56.540Z,5.10
2019-02-27T18:55:22.752Z,5.10
2019-02-27T18:57:49.089Z,5.10
2019-02-27T19:00:23.535Z,5.00
2019-02-27T19:02:57.819Z,5.00
2019-02-27T19:05:24.158Z,4.90
2019-02-27T19:07:53.828Z,4.80
2019-02-27T19:10:18.817Z,4.70
2019-02-27T19:12:45.048Z,4.60
2019-02-27T19:15:19.769Z,4.40
2019-02-27T19:17:46.193Z,4.20
2019-02-27T19:20:24.683Z,4.10
2019-02-27T19:22:49.988Z,4.20
2019-02-27T19:25:16.476Z,4.30
2019-02-27T19:27:42.918Z,4.30
2019-02-27T19:30:14.947Z,4.30
2019-02-27T19:32:41.161Z,4.30
2019-02-27T19:35:07.614Z,4.20
2019-02-27T19:37:36.407Z,4.10
2019-02-27T19:40:02.824Z,4.00
2019-02-27T19:42:32.229Z,3.90
2019-02-27T19:45:03.793Z,3.80
2019-02-27T19:47:27.198Z,3.80
2019-02-27T19:49:53.478Z,3.70
2019-02-27T19:52:19.874Z,3.60
2019-02-27T19:54:46.215Z,3.50
2019-02-27T19:57:12.589Z,3.50
2019-02-27T19:59:38.905Z,3.40
2019-02-27T20:02:05.389Z,3.40
2019-02-27T20:04:31.646Z,3.30
2019-02-27T20:06:58.345Z,3.30
2019-02-27T20:09:26.005Z,3.30
2019-02-27T20:11:52.380Z,3.20
2019-02-27T20:14:18.697Z,3.20
2019-02-27T20:16:45.020Z,3.20
2019-02-27T20:19:11.734Z,3.40
2019-02-27T20:21:38.400Z,3.40
2019-02-27T20:24:14.047Z,3.40
2019-02-27T20:26:33.039Z,3.40
2019-02-27T20:28:59.386Z,3.50
2019-02-27T20:31:25.634Z,3.70
2019-02-27T20:33:51.870Z,3.60
2019-02-27T20:36:19.675Z,3.60
2019-02-27T20:38:47.477Z,3.90
2019-02-27T20:41:16.564Z,4.20
2019-02-27T20:43:44.161Z,4.40
2019-02-27T20:46:20.032Z,4.40
2019-02-27T20:48:47.660Z,4.30
2019-02-27T20:51:14.336Z,4.20
2019-02-27T20:53:41.934Z,4.10
2019-02-27T20:56:10.054Z,4.00
2019-02-27T20:58:36.689Z,3.80
2019-02-27T21:01:10.012Z,3.80
2019-02-27T21:03:35.765Z,3.70
2019-02-27T21:06:02.777Z,3.60
2019-02-27T21:08:29.128Z,3.50
2019-02-27T21:10:56.445Z,3.40
2019-02-27T21:13:26.280Z,3.30
2019-02-27T21:15:52.757Z,3.50
2019-02-27T21:18:20.691Z,3.80
2019-02-27T21:20:47.516Z,4.10
2019-02-27T21:23:13.925Z,4.20
2019-02-27T21:25:41.343Z,4.30
2019-02-27T21:28:10.617Z,4.50
2019-02-27T21:30:38.595Z,4.90
2019-02-27T21:33:05.022Z,5.20
2019-02-27T21:35:32.631Z,5.30
2019-02-27T21:38:01.264Z,5.40
2019-02-27T21:40:28.281Z,5.30
2019-02-27T21:42:55.001Z,5.10
2019-02-27T21:45:23.851Z,5.00
2019-02-27T21:47:51.926Z,5.10
2019-02-27T21:50:21.056Z,5.20
2019-02-27T21:52:49.725Z,5.20
2019-02-27T21:55:20.072Z,5.10
2019-02-27T21:57:47.649Z,4.80
2019-02-27T22:00:24.745Z,4.60
2019-02-27T22:02:53.763Z,4.40
2019-02-27T22:05:20.645Z,4.20
2019-02-27T22:07:48.712Z,4.00
2019-02-27T22:10:19.562Z,3.80
2019-02-27T22:12:45.193Z,3.80
2019-02-27T22:15:15.391Z,3.80
2019-02-27T22:17:42.944Z,3.90
2019-02-27T22:20:12.397Z,4.00
2019-02-27T22:22:42.292Z,4.10
2019-02-27T22:25:14.535Z,4.20
2019-02-27T22:27:49.985Z,4.20
2019-02-27T22:30:18.793Z,4.30
2019-02-27T22:32:48.126Z,4.30
2019-02-27T22:35:17.936Z,4.30
2019-02-27T22:37:45.373Z,4.30
2019-02-27T22:40:19.995Z,4.20
2019-02-27T22:42:48.418Z,4.10
2019-02-27T22:45:18.648Z,3.90
2019-02-27T22:47:46.479Z,3.70
2019-02-27T22:50:18.959Z,3.70
2019-02-27T22:52:54.151Z,3.70
2019-02-27T22:55:19.231Z,3.70
2019-02-27T22:57:48.293Z,3.70
2019-02-27T23:00:56.546Z,3.60
2019-02-27T23:03:37.700Z,3.50
2019-02-27T23:06:09.278Z,3.50
2019-02-27T23:08:36.217Z,3.60
2019-02-27T23:11:11.106Z,3.80
2019-02-27T23:13:39.585Z,4.00
2019-02-27T23:16:07.790Z,4.10
2019-02-27T23:18:37.342Z,4.20
2019-02-27T23:21:05.142Z,4.30
2019-02-27T23:23:33.351Z,4.40
2019-02-27T23:25:59.675Z,4.50
2019-02-27T23:28:26.178Z,4.60
2019-02-27T23:30:52.607Z,4.70
2019-02-27T23:33:20.006Z,4.80
2019-02-27T23:35:47.286Z,4.80
2019-02-27T23:38:14.546Z,4.70
2019-02-27T23:40:40.805Z,4.70
2019-02-27T23:43:07.166Z,4.60
2019-02-27T23:45:33.452Z,4.50
2019-02-27T23:48:02.436Z,4.50
2019-02-27T23:50:29.293Z,4.50
2019-02-27T23:52:55.822Z,4.40
2019-02-27T23:55:22.573Z,4.30
2019-02-27T23:57:49.986Z,4.10
